createdAt,value
2022-11-01T00:00:13.247Z,26.37
2022-11-01T00:00:43.268Z,26.39
2022-11-01T00:01:13.340Z,26.39
2022-11-01T00:01:43.466Z,26.39
2022-11-01T00:02:13.441Z,26.37
2022-11-01T00:02:43.529Z,26.39
2022-11-01T00:03:13.465Z,26.40
2022-11-01T00:03:43.481Z,26.39
2022-11-01T00:04:13.513Z,26.39
2022-11-01T00:04:43.538Z,26.40
2022-11-01T00:05:13.584Z,26.37
2022-11-01T00:05:43.612Z,26.39
2022-11-01T00:06:13.640Z,26.42
2022-11-01T00:06:43.668Z,26.37
2022-11-01T00:07:13.688Z,26.40
2022-11-01T00:07:43.728Z,26.39
2022-11-01T00:08:13.755Z,26.37
2022-11-01T00:08:43.772Z,26.39
2022-11-01T00:09:13.801Z,26.37
2022-11-01T00:09:43.827Z,26.39
2022-11-01T00:10:13.939Z,26.39
2022-11-01T00:10:43.846Z,26.39
2022-11-01T00:11:13.878Z,26.37
2022-11-01T00:11:43.893Z,26.39
2022-11-01T00:12:13.918Z,26.42
2022-11-01T00:12:43.938Z,26.37
2022-11-01T00:13:13.964Z,26.39
2022-11-01T00:13:43.984Z,26.40
2022-11-01T00:14:14.024Z,26.40
2022-11-01T00:14:44.040Z,26.40
2022-11-01T00:15:14.079Z,26.39
2022-11-01T00:15:44.077Z,26.39
2022-11-01T00:16:14.194Z,26.37
2022-11-01T00:16:44.298Z,26.37
2022-11-01T00:17:14.408Z,26.40
2022-11-01T00:17:44.518Z,26.37
2022-11-01T00:18:14.631Z,26.37
2022-11-01T00:18:44.741Z,26.37
2022-11-01T00:19:14.855Z,26.37
2022-11-01T00:19:44.961Z,26.37
2022-11-01T00:20:15.076Z,26.40
2022-11-01T00:20:45.187Z,26.39
2022-11-01T00:21:15.301Z,26.39
2022-11-01T00:21:45.415Z,26.39
2022-11-01T00:22:15.524Z,26.39
2022-11-01T00:22:45.656Z,26.40
2022-11-01T00:23:15.771Z,26.40
2022-11-01T00:23:45.759Z,26.39
2022-11-01T00:24:15.875Z,26.37
2022-11-01T00:24:45.987Z,26.39
2022-11-01T00:25:16.121Z,26.39
2022-11-01T00:25:46.151Z,26.42
2022-11-01T00:26:16.148Z,26.42
2022-11-01T00:26:46.240Z,26.40
2022-11-01T00:27:16.252Z,26.39
2022-11-01T00:27:46.266Z,26.40
2022-11-01T00:28:16.290Z,26.39
2022-11-01T00:28:46.306Z,26.40
2022-11-01T00:29:16.351Z,26.40
2022-11-01T00:29:46.356Z,26.42
2022-11-01T00:30:16.399Z,26.43
2022-11-01T00:30:46.421Z,26.40
2022-11-01T00:31:16.446Z,26.40
2022-11-01T00:31:46.471Z,26.40
2022-11-01T00:32:16.500Z,26.42
2022-11-01T00:32:46.514Z,26.39
2022-11-01T00:33:16.542Z,26.40
2022-11-01T00:33:46.571Z,26.42
2022-11-01T00:34:16.599Z,26.43
2022-11-01T00:34:46.619Z,26.42
2022-11-01T00:35:16.665Z,26.39
2022-11-01T00:35:46.683Z,26.40
2022-11-01T00:36:16.709Z,26.42
2022-11-01T00:36:46.731Z,26.43
2022-11-01T00:37:16.753Z,26.42
2022-11-01T00:37:46.775Z,26.42
2022-11-01T00:38:16.799Z,26.39
2022-11-01T00:38:46.825Z,26.43
2022-11-01T00:39:16.852Z,26.40
2022-11-01T00:39:46.873Z,26.43
2022-11-01T00:40:16.912Z,26.43
2022-11-01T00:40:46.932Z,26.42
2022-11-01T00:41:16.986Z,26.42
2022-11-01T00:41:46.989Z,26.42
2022-11-01T00:42:17.015Z,26.42
2022-11-01T00:42:47.064Z,26.42
2022-11-01T00:43:17.062Z,26.42
2022-11-01T00:43:47.080Z,26.40
2022-11-01T00:44:17.104Z,26.42
2022-11-01T00:44:47.128Z,26.44
2022-11-01T00:45:17.169Z,26.40
2022-11-01T00:45:47.199Z,26.43
2022-11-01T00:46:17.224Z,26.42
2022-11-01T00:46:47.247Z,26.42
2022-11-01T00:47:17.274Z,26.42
2022-11-01T00:47:47.290Z,26.43
2022-11-01T00:48:17.313Z,26.44
2022-11-01T00:48:47.333Z,26.40
2022-11-01T00:49:17.358Z,26.43
2022-11-01T00:49:47.388Z,26.40
2022-11-01T00:50:17.420Z,26.40
2022-11-01T00:50:47.448Z,26.40
2022-11-01T00:51:17.476Z,26.40
2022-11-01T00:51:47.499Z,26.43
2022-11-01T00:52:17.516Z,26.43
2022-11-01T00:52:47.537Z,26.42
2022-11-01T00:53:17.562Z,26.40
2022-11-01T00:53:47.587Z,26.42
2022-11-01T00:54:17.606Z,26.40
2022-11-01T00:54:47.627Z,26.40
2022-11-01T00:55:17.664Z,26.42
2022-11-01T00:55:47.681Z,26.40
2022-11-01T00:56:17.708Z,26.40
2022-11-01T00:56:47.747Z,26.42
2022-11-01T00:57:17.755Z,26.37
2022-11-01T00:57:47.775Z,26.40
2022-11-01T00:58:17.792Z,26.42
2022-11-01T00:58:47.827Z,26.39
2022-11-01T00:59:17.849Z,26.42
2022-11-01T00:59:47.929Z,26.40
2022-11-01T01:00:17.947Z,26.42
2022-11-01T01:00:48.203Z,26.37
2022-11-01T01:01:18.143Z,26.40
2022-11-01T01:01:48.149Z,26.40
2022-11-01T01:02:18.315Z,26.37
2022-11-01T01:02:48.108Z,26.39
2022-11-01T01:03:18.132Z,26.39
2022-11-01T01:03:48.158Z,26.40
2022-11-01T01:04:18.182Z,26.39
2022-11-01T01:04:48.210Z,26.40
2022-11-01T01:05:18.235Z,26.40
2022-11-01T01:05:48.258Z,26.40
2022-11-01T01:06:18.284Z,26.37
2022-11-01T01:06:48.304Z,26.37
2022-11-01T01:07:18.333Z,26.39
2022-11-01T01:07:48.356Z,26.37
2022-11-01T01:08:18.378Z,26.37
2022-11-01T01:08:48.406Z,26.37
2022-11-01T01:09:18.459Z,26.39
2022-11-01T01:09:48.505Z,26.39
2022-11-01T01:10:18.529Z,26.37
2022-11-01T01:10:48.556Z,26.39
2022-11-01T01:11:18.581Z,26.39
2022-11-01T01:11:48.613Z,26.36
2022-11-01T01:12:18.651Z,26.37
2022-11-01T01:12:48.649Z,26.36
2022-11-01T01:13:18.674Z,26.37
2022-11-01T01:13:48.698Z,26.39
2022-11-01T01:14:18.719Z,26.36
2022-11-01T01:14:48.746Z,26.37
2022-11-01T01:15:18.776Z,26.39
2022-11-01T01:15:48.778Z,26.39
2022-11-01T01:16:18.887Z,26.36
2022-11-01T01:16:48.996Z,26.37
2022-11-01T01:17:19.110Z,26.39
2022-11-01T01:17:49.217Z,26.37
2022-11-01T01:18:19.329Z,26.37
2022-11-01T01:18:49.442Z,26.39
2022-11-01T01:19:19.560Z,26.34
2022-11-01T01:19:49.675Z,26.37
2022-11-01T01:20:19.784Z,26.39
2022-11-01T01:20:49.902Z,26.36
2022-11-01T01:21:19.896Z,26.36
2022-11-01T01:21:50.008Z,26.36
2022-11-01T01:22:20.118Z,26.37
2022-11-01T01:22:50.234Z,26.37
2022-11-01T01:23:20.342Z,26.36
2022-11-01T01:23:50.456Z,26.37
2022-11-01T01:24:20.563Z,26.36
2022-11-01T01:24:50.680Z,26.34
2022-11-01T01:25:20.801Z,26.36
2022-11-01T01:25:50.812Z,26.36
2022-11-01T01:26:20.839Z,26.37
2022-11-01T01:26:50.862Z,26.36
2022-11-01T01:27:20.908Z,26.37
2022-11-01T01:27:50.911Z,26.37
2022-11-01T01:28:20.936Z,26.33
2022-11-01T01:28:50.966Z,26.34
2022-11-01T01:29:20.990Z,26.36
2022-11-01T01:29:51.015Z,26.34
2022-11-01T01:30:21.042Z,26.33
2022-11-01T01:30:51.070Z,26.32
2022-11-01T01:31:21.094Z,26.37
2022-11-01T01:31:51.115Z,26.34
2022-11-01T01:32:21.140Z,26.33
2022-11-01T01:32:51.161Z,26.34
2022-11-01T01:33:21.188Z,26.34
2022-11-01T01:33:51.222Z,26.34
2022-11-01T01:34:21.246Z,26.34
2022-11-01T01:34:51.274Z,26.34
2022-11-01T01:35:21.293Z,26.34
2022-11-01T01:35:51.323Z,26.34
2022-11-01T01:36:21.346Z,26.34
2022-11-01T01:36:51.371Z,26.34
2022-11-01T01:37:21.397Z,26.32
2022-11-01T01:37:51.421Z,26.34
2022-11-01T01:38:21.445Z,26.34
2022-11-01T01:38:51.469Z,26.34
2022-11-01T01:39:21.501Z,26.33
2022-11-01T01:39:51.535Z,26.36
2022-11-01T01:40:21.560Z,26.36
2022-11-01T01:40:51.582Z,26.34
2022-11-01T01:41:21.604Z,26.32
2022-11-01T01:41:51.626Z,26.34
2022-11-01T01:42:21.650Z,26.34
2022-11-01T01:42:51.694Z,26.33
2022-11-01T01:43:21.697Z,26.34
2022-11-01T01:43:51.720Z,26.33
2022-11-01T01:44:21.742Z,26.34
2022-11-01T01:44:51.769Z,26.33
2022-11-01T01:45:21.794Z,26.33
2022-11-01T01:45:51.820Z,26.32
2022-11-01T01:46:21.849Z,26.33
2022-11-01T01:46:51.874Z,26.33
2022-11-01T01:47:21.896Z,26.32
2022-11-01T01:47:51.925Z,26.33
2022-11-01T01:48:21.953Z,26.32
2022-11-01T01:48:51.977Z,26.30
2022-11-01T01:49:22.003Z,26.33
2022-11-01T01:50:22.055Z,26.33
2022-11-01T01:50:52.079Z,26.33
2022-11-01T01:51:22.103Z,26.32
2022-11-01T01:51:52.133Z,26.32
2022-11-01T01:52:22.160Z,26.33
2022-11-01T01:52:52.188Z,26.33
2022-11-01T01:53:22.206Z,26.34
2022-11-01T01:53:52.231Z,26.34
2022-11-01T01:54:22.263Z,26.33
2022-11-01T01:54:52.288Z,26.32
2022-11-01T01:55:22.313Z,26.34
2022-11-01T01:55:52.342Z,26.33
2022-11-01T01:56:22.369Z,26.34
2022-11-01T01:56:52.408Z,26.34
2022-11-01T01:57:22.420Z,26.34
2022-11-01T01:57:52.445Z,26.32
2022-11-01T01:58:22.498Z,26.33
2022-11-01T01:58:52.502Z,26.33
2022-11-01T01:59:22.546Z,26.34
2022-11-01T01:59:52.568Z,26.33
2022-11-01T02:00:22.595Z,26.32
2022-11-01T02:00:52.681Z,26.32
2022-11-01T02:01:22.804Z,26.33
2022-11-01T02:01:52.874Z,26.30
2022-11-01T02:02:22.813Z,26.34
2022-11-01T02:02:52.824Z,26.33
2022-11-01T02:03:22.849Z,26.32
2022-11-01T02:03:52.875Z,26.33
2022-11-01T02:04:22.898Z,26.32
2022-11-01T02:04:52.924Z,26.34
2022-11-01T02:05:22.940Z,26.36
2022-11-01T02:05:52.974Z,26.32
2022-11-01T02:06:53.009Z,26.32
2022-11-01T02:07:23.036Z,26.33
2022-11-01T02:07:53.064Z,26.33
2022-11-01T02:08:23.086Z,26.33
2022-11-01T02:08:53.108Z,26.34
2022-11-01T02:09:24.906Z,26.32
2022-11-01T02:09:53.177Z,26.32
2022-11-01T02:10:23.197Z,26.32
2022-11-01T02:10:53.227Z,26.33
2022-11-01T02:11:23.251Z,26.32
2022-11-01T02:11:53.279Z,26.34
2022-11-01T02:12:23.302Z,26.33
2022-11-01T02:12:53.325Z,26.32
2022-11-01T02:13:23.351Z,26.34
2022-11-01T02:13:53.392Z,26.30
2022-11-01T02:14:23.394Z,26.30
2022-11-01T02:14:53.416Z,26.30
2022-11-01T02:15:23.442Z,26.33
2022-11-01T02:15:53.564Z,26.33
2022-11-01T02:16:23.677Z,26.33
2022-11-01T02:16:53.791Z,26.33
2022-11-01T02:17:23.900Z,26.33
2022-11-01T02:17:54.009Z,26.33
2022-11-01T02:18:24.123Z,26.34
2022-11-01T02:18:54.238Z,26.33
2022-11-01T02:19:24.348Z,26.33
2022-11-01T02:19:54.470Z,26.33
2022-11-01T02:20:24.468Z,26.33
2022-11-01T02:20:54.576Z,26.33
2022-11-01T02:21:24.686Z,26.34
2022-11-01T02:21:54.794Z,26.32
2022-11-01T02:22:24.910Z,26.36
2022-11-01T02:22:55.026Z,26.33
2022-11-01T02:23:25.138Z,26.33
2022-11-01T02:23:55.253Z,26.32
2022-11-01T02:24:25.361Z,26.30
2022-11-01T02:24:55.471Z,26.32
2022-11-01T02:25:25.585Z,26.33
2022-11-01T02:25:55.601Z,26.33
2022-11-01T02:26:25.624Z,26.32
2022-11-01T02:26:55.647Z,26.32
2022-11-01T02:27:25.669Z,26.32
2022-11-01T02:27:55.705Z,26.33
2022-11-01T02:28:25.720Z,26.34
2022-11-01T02:28:55.766Z,26.33
2022-11-01T02:29:25.765Z,26.33
2022-11-01T02:29:55.788Z,26.33
2022-11-01T02:30:25.813Z,26.33
2022-11-01T02:30:55.832Z,26.33
2022-11-01T02:31:25.855Z,26.32
2022-11-01T02:31:55.880Z,26.33
2022-11-01T02:32:25.903Z,26.33
2022-11-01T02:32:55.935Z,26.32
2022-11-01T02:33:25.957Z,26.32
2022-11-01T02:33:55.985Z,26.33
2022-11-01T02:34:26.009Z,26.33
2022-11-01T02:34:56.038Z,26.32
2022-11-01T02:35:26.059Z,26.32
2022-11-01T02:35:56.088Z,26.33
2022-11-01T02:36:26.112Z,26.32
2022-11-01T02:36:56.138Z,26.33
2022-11-01T02:37:26.158Z,26.33
2022-11-01T02:37:56.181Z,26.32
2022-11-01T02:38:26.211Z,26.33
2022-11-01T02:38:56.236Z,26.32
2022-11-01T02:39:26.260Z,26.33
2022-11-01T02:39:56.295Z,26.33
2022-11-01T02:40:26.317Z,26.33
2022-11-01T02:40:56.340Z,26.33
2022-11-01T02:41:26.367Z,26.33
2022-11-01T02:41:56.390Z,26.33
2022-11-01T02:42:26.416Z,26.32
2022-11-01T02:42:56.441Z,26.34
2022-11-01T02:43:26.471Z,26.33
2022-11-01T02:43:56.495Z,26.33
2022-11-01T02:44:26.553Z,26.34
2022-11-01T02:44:56.559Z,26.33
2022-11-01T02:45:26.579Z,26.33
2022-11-01T02:45:56.605Z,26.36
2022-11-01T02:46:26.624Z,26.33
2022-11-01T02:46:56.651Z,26.33
2022-11-01T02:47:26.671Z,26.33
2022-11-01T02:47:56.694Z,26.36
2022-11-01T02:48:26.728Z,26.36
2022-11-01T02:48:56.761Z,26.36
2022-11-01T02:49:26.805Z,26.34
2022-11-01T02:49:56.840Z,26.36
2022-11-01T02:50:26.855Z,26.36
2022-11-01T02:50:56.880Z,26.36
2022-11-01T02:51:26.906Z,26.36
2022-11-01T02:51:56.949Z,26.37
2022-11-01T02:52:26.964Z,26.36
2022-11-01T02:52:56.993Z,26.33
2022-11-01T02:53:27.015Z,26.34
2022-11-01T02:53:57.039Z,26.34
2022-11-01T02:54:27.076Z,26.37
2022-11-01T02:54:57.109Z,26.34
2022-11-01T02:55:27.126Z,26.36
2022-11-01T02:55:57.155Z,26.34
2022-11-01T02:56:27.169Z,26.34
2022-11-01T02:56:57.208Z,26.37
2022-11-01T02:57:27.216Z,26.36
2022-11-01T02:57:57.248Z,26.34
2022-11-01T02:58:27.278Z,26.37
2022-11-01T02:58:57.307Z,26.36
2022-11-01T02:59:27.364Z,26.36
2022-11-01T02:59:57.416Z,26.39
2022-11-01T03:00:27.421Z,26.37
2022-11-01T03:00:57.495Z,26.36
2022-11-01T03:01:27.666Z,26.37
2022-11-01T03:01:57.737Z,26.36
2022-11-01T03:02:27.632Z,26.36
2022-11-01T03:02:57.662Z,26.36
2022-11-01T03:03:27.686Z,26.39
2022-11-01T03:03:57.714Z,26.37
2022-11-01T03:04:27.765Z,26.36
2022-11-01T03:04:57.935Z,26.36
2022-11-01T03:05:27.867Z,26.36
2022-11-01T03:05:57.891Z,26.36
2022-11-01T03:06:27.916Z,26.36
2022-11-01T03:06:57.960Z,26.37
2022-11-01T03:07:28.008Z,26.36
2022-11-01T03:07:58.037Z,26.37
2022-11-01T03:08:28.060Z,26.37
2022-11-01T03:08:58.088Z,26.34
2022-11-01T03:09:28.127Z,26.37
2022-11-01T03:09:58.154Z,26.34
2022-11-01T03:10:28.178Z,26.36
2022-11-01T03:10:58.207Z,26.36
2022-11-01T03:11:28.240Z,26.34
2022-11-01T03:11:58.259Z,26.36
2022-11-01T03:12:58.410Z,26.34
2022-11-01T03:13:28.408Z,26.37
2022-11-01T03:13:58.456Z,26.39
2022-11-01T03:14:28.550Z,26.36
2022-11-01T03:14:58.581Z,26.36
2022-11-01T03:15:28.627Z,26.39
2022-11-01T03:15:58.710Z,26.36
2022-11-01T03:16:28.824Z,26.34
2022-11-01T03:16:58.940Z,26.34
2022-11-01T03:17:29.047Z,26.34
2022-11-01T03:17:59.162Z,26.33
2022-11-01T03:18:29.270Z,26.34
2022-11-01T03:18:59.382Z,26.34
2022-11-01T03:19:29.509Z,26.34
2022-11-01T03:19:59.502Z,26.33
2022-11-01T03:20:29.607Z,26.34
2022-11-01T03:20:59.716Z,26.36
2022-11-01T03:21:29.825Z,26.36
2022-11-01T03:21:59.939Z,26.33
2022-11-01T03:22:30.053Z,26.34
2022-11-01T03:23:00.589Z,26.34
2022-11-01T03:23:30.260Z,26.34
2022-11-01T03:24:00.367Z,26.33
2022-11-01T03:24:30.501Z,26.34
2022-11-01T03:25:00.478Z,26.34
2022-11-01T03:25:30.596Z,26.33
2022-11-01T03:26:00.619Z,26.34
2022-11-01T03:26:30.638Z,26.32
2022-11-01T03:27:00.667Z,26.32
2022-11-01T03:27:30.690Z,26.33
2022-11-01T03:28:00.713Z,26.33
2022-11-01T03:28:30.737Z,26.30
2022-11-01T03:29:00.769Z,26.32
2022-11-01T03:29:30.811Z,26.32
2022-11-01T03:30:00.827Z,26.32
2022-11-01T03:30:30.875Z,26.32
2022-11-01T03:31:00.876Z,26.33
2022-11-01T03:31:30.898Z,26.33
2022-11-01T03:32:00.929Z,26.33
2022-11-01T03:32:30.950Z,26.33
2022-11-01T03:33:01.473Z,26.33
2022-11-01T03:33:31.027Z,26.32
2022-11-01T03:34:01.050Z,26.32
2022-11-01T03:34:31.077Z,26.33
2022-11-01T03:35:01.106Z,26.30
2022-11-01T03:35:31.124Z,26.33
2022-11-01T03:36:01.144Z,26.32
2022-11-01T03:36:31.172Z,26.32
2022-11-01T03:37:01.190Z,26.30
2022-11-01T03:37:31.219Z,26.32
2022-11-01T03:38:01.243Z,26.30
2022-11-01T03:38:31.266Z,26.30
2022-11-01T03:39:01.296Z,26.32
2022-11-01T03:39:31.320Z,26.33
2022-11-01T03:40:01.345Z,26.32
2022-11-01T03:40:31.396Z,26.30
2022-11-01T03:41:01.408Z,26.32
2022-11-01T03:41:31.432Z,26.33
2022-11-01T03:42:01.457Z,26.30
2022-11-01T03:42:31.488Z,26.30
2022-11-01T03:43:01.816Z,26.32
2022-11-01T03:43:31.527Z,26.33
2022-11-01T03:44:01.548Z,26.32
2022-11-01T03:44:31.574Z,26.29
2022-11-01T03:45:01.603Z,26.32
2022-11-01T03:45:31.624Z,26.30
2022-11-01T03:46:01.666Z,26.32
2022-11-01T03:46:31.668Z,26.30
2022-11-01T03:47:01.687Z,26.29
2022-11-01T03:47:31.717Z,26.30
2022-11-01T03:48:02.011Z,26.30
2022-11-01T03:48:31.817Z,26.30
2022-11-01T03:49:01.847Z,26.32
2022-11-01T03:49:31.874Z,26.30
2022-11-01T03:50:01.896Z,26.29
2022-11-01T03:50:31.920Z,26.30
2022-11-01T03:51:01.947Z,26.30
2022-11-01T03:51:31.970Z,26.32
2022-11-01T03:52:01.990Z,26.30
2022-11-01T03:52:32.020Z,26.30
2022-11-01T03:53:02.044Z,26.32
2022-11-01T03:53:32.079Z,26.30
2022-11-01T03:54:02.098Z,26.32
2022-11-01T03:54:32.147Z,26.32
2022-11-01T03:55:02.182Z,26.30
2022-11-01T03:55:32.203Z,26.30
2022-11-01T03:56:02.293Z,26.29
2022-11-01T03:56:32.320Z,26.30
2022-11-01T03:57:02.339Z,26.30
2022-11-01T03:57:32.369Z,26.26
2022-11-01T03:58:02.810Z,26.32
2022-11-01T03:58:32.508Z,26.30
2022-11-01T03:59:02.541Z,26.32
2022-11-01T03:59:32.573Z,26.30
2022-11-01T04:00:02.603Z,26.29
2022-11-01T04:00:32.627Z,26.29
2022-11-01T04:01:02.712Z,26.29
2022-11-01T04:01:32.900Z,26.32
2022-11-01T04:02:02.925Z,26.29
2022-11-01T04:02:32.780Z,26.32
2022-11-01T04:03:03.163Z,26.30
2022-11-01T04:03:32.832Z,26.32
2022-11-01T04:04:02.860Z,26.32
2022-11-01T04:04:32.890Z,26.30
2022-11-01T04:05:02.928Z,26.32
2022-11-01T04:05:32.933Z,26.30
2022-11-01T04:06:02.958Z,26.30
2022-11-01T04:06:32.982Z,26.30
2022-11-01T04:07:03.016Z,26.30
2022-11-01T04:07:33.025Z,26.30
2022-11-01T04:08:03.058Z,26.30
2022-11-01T04:08:33.087Z,26.30
2022-11-01T04:09:03.113Z,26.30
2022-11-01T04:09:33.136Z,26.32
2022-11-01T04:10:03.158Z,26.29
2022-11-01T04:10:33.181Z,26.30
2022-11-01T04:11:03.221Z,26.32
2022-11-01T04:11:33.245Z,26.30
2022-11-01T04:12:03.288Z,26.29
2022-11-01T04:12:33.312Z,26.32
2022-11-01T04:13:03.669Z,26.30
2022-11-01T04:13:33.353Z,26.30
2022-11-01T04:14:03.377Z,26.33
2022-11-01T04:14:33.401Z,26.32
2022-11-01T04:15:03.422Z,26.30
2022-11-01T04:15:33.437Z,26.30
2022-11-01T04:16:03.552Z,26.32
2022-11-01T04:16:33.672Z,26.29
2022-11-01T04:17:03.796Z,26.30
2022-11-01T04:17:33.886Z,26.29
2022-11-01T04:18:03.998Z,26.27
2022-11-01T04:18:34.218Z,26.30
2022-11-01T04:19:04.216Z,26.30
2022-11-01T04:19:34.325Z,26.30
2022-11-01T04:20:04.441Z,26.27
2022-11-01T04:20:34.549Z,26.30
2022-11-01T04:21:04.664Z,26.29
2022-11-01T04:21:34.776Z,26.29
2022-11-01T04:22:04.889Z,26.30
2022-11-01T04:22:35.002Z,26.30
2022-11-01T04:23:05.522Z,26.30
2022-11-01T04:23:35.128Z,26.32
2022-11-01T04:24:05.244Z,26.32
2022-11-01T04:24:35.353Z,26.29
2022-11-01T04:25:05.464Z,26.29
2022-11-01T04:25:35.465Z,26.33
2022-11-01T04:26:05.494Z,26.30
2022-11-01T04:26:35.512Z,26.29
2022-11-01T04:27:05.535Z,26.29
2022-11-01T04:27:35.563Z,26.30
2022-11-01T04:28:05.589Z,26.27
2022-11-01T04:28:35.616Z,26.30
2022-11-01T04:29:05.641Z,26.27
2022-11-01T04:29:35.665Z,26.29
2022-11-01T04:30:05.694Z,26.32
2022-11-01T04:30:35.717Z,26.30
2022-11-01T04:31:05.743Z,26.30
2022-11-01T04:31:35.763Z,26.30
2022-11-01T04:32:05.808Z,26.29
2022-11-01T04:32:35.819Z,26.30
2022-11-01T04:33:05.890Z,26.30
2022-11-01T04:33:35.884Z,26.30
2022-11-01T04:34:05.912Z,26.29
2022-11-01T04:34:35.940Z,26.29
2022-11-01T04:35:35.965Z,26.29
2022-11-01T04:36:05.990Z,26.30
2022-11-01T04:36:36.010Z,26.29
2022-11-01T04:37:06.037Z,26.30
2022-11-01T04:37:36.071Z,26.27
2022-11-01T04:38:06.460Z,26.29
2022-11-01T04:38:36.169Z,26.30
2022-11-01T04:39:06.206Z,26.30
2022-11-01T04:39:36.232Z,26.29
2022-11-01T04:40:06.254Z,26.29
2022-11-01T04:40:36.283Z,26.29
2022-11-01T04:41:06.311Z,26.30
2022-11-01T04:41:36.330Z,26.30
2022-11-01T04:42:06.362Z,26.29
2022-11-01T04:42:36.386Z,26.27
2022-11-01T04:43:06.414Z,26.26
2022-11-01T04:43:36.440Z,26.27
2022-11-01T04:44:06.470Z,26.30
2022-11-01T04:44:36.498Z,26.30
2022-11-01T04:45:06.520Z,26.29
2022-11-01T04:45:36.551Z,26.30
2022-11-01T04:46:06.575Z,26.26
2022-11-01T04:46:36.594Z,26.29
2022-11-01T04:47:06.616Z,26.27
2022-11-01T04:47:36.657Z,26.27
2022-11-01T04:48:06.664Z,26.27
2022-11-01T04:48:36.694Z,26.27
2022-11-01T04:49:06.717Z,26.29
2022-11-01T04:49:36.743Z,26.29
2022-11-01T04:50:06.764Z,26.30
2022-11-01T04:50:36.800Z,26.29
2022-11-01T04:51:06.819Z,26.30
2022-11-01T04:51:36.844Z,26.30
2022-11-01T04:52:06.868Z,26.29
2022-11-01T04:52:36.893Z,26.29
2022-11-01T04:53:06.917Z,26.29
2022-11-01T04:53:36.942Z,26.27
2022-11-01T04:54:06.973Z,26.27
2022-11-01T04:54:37.002Z,26.29
2022-11-01T04:55:07.026Z,26.26
2022-11-01T04:55:37.059Z,26.29
2022-11-01T04:56:07.075Z,26.27
2022-11-01T04:56:37.100Z,26.29
2022-11-01T04:57:07.122Z,26.29
2022-11-01T04:57:37.151Z,26.32
2022-11-01T04:58:07.172Z,26.26
2022-11-01T04:58:42.925Z,26.24
2022-11-01T04:59:07.245Z,26.27
2022-11-01T04:59:37.266Z,26.27
2022-11-01T05:00:07.293Z,26.27
2022-11-01T05:00:37.381Z,26.30
2022-11-01T05:01:07.561Z,26.26
2022-11-01T05:01:37.542Z,26.26
2022-11-01T05:02:07.560Z,26.29
2022-11-01T05:02:37.583Z,26.30
2022-11-01T05:03:07.636Z,26.30
2022-11-01T05:03:37.638Z,26.29
2022-11-01T05:04:07.663Z,26.29
2022-11-01T05:04:37.691Z,26.30
2022-11-01T05:05:07.711Z,26.27
2022-11-01T05:05:37.733Z,26.29
2022-11-01T05:06:07.754Z,26.29
2022-11-01T05:06:37.780Z,26.27
2022-11-01T05:07:07.804Z,26.32
2022-11-01T05:07:37.840Z,26.27
2022-11-01T05:08:07.859Z,26.29
2022-11-01T05:08:37.880Z,26.27
2022-11-01T05:09:07.911Z,26.30
2022-11-01T05:09:37.938Z,26.32
2022-11-01T05:10:07.960Z,26.29
2022-11-01T05:10:37.985Z,26.30
2022-11-01T05:11:08.011Z,26.29
2022-11-01T05:11:38.034Z,26.29
2022-11-01T05:12:08.059Z,26.32
2022-11-01T05:12:38.083Z,26.30
2022-11-01T05:13:08.099Z,26.27
2022-11-01T05:13:38.130Z,26.30
2022-11-01T05:14:08.151Z,26.32
2022-11-01T05:14:38.175Z,26.29
2022-11-01T05:15:08.208Z,26.32
2022-11-01T05:15:39.962Z,26.30
2022-11-01T05:16:23.687Z,26.32
2022-11-01T05:16:38.237Z,26.30
2022-11-01T05:17:08.349Z,26.30
2022-11-01T05:17:38.461Z,26.29
2022-11-01T05:18:08.569Z,26.29
2022-11-01T05:18:38.711Z,26.32
2022-11-01T05:19:08.875Z,26.29
2022-11-01T05:19:38.854Z,26.30
2022-11-01T05:20:08.965Z,26.32
2022-11-01T05:20:39.078Z,26.32
2022-11-01T05:21:09.185Z,26.32
2022-11-01T05:21:39.296Z,26.29
2022-11-01T05:22:09.406Z,26.32
2022-11-01T05:22:39.521Z,26.32
2022-11-01T05:23:09.629Z,26.32
2022-11-01T05:23:39.749Z,26.32
2022-11-01T05:24:09.861Z,26.34
2022-11-01T05:24:39.971Z,26.32
2022-11-01T05:25:10.089Z,26.30
2022-11-01T05:25:40.099Z,26.32
2022-11-01T05:26:10.122Z,26.33
2022-11-01T05:26:40.154Z,26.30
2022-11-01T05:27:10.181Z,26.33
2022-11-01T05:27:40.211Z,26.30
2022-11-01T05:28:10.235Z,26.33
2022-11-01T05:28:40.261Z,26.32
2022-11-01T05:29:24.552Z,26.30
2022-11-01T05:29:40.332Z,26.29
2022-11-01T05:30:10.360Z,26.32
2022-11-01T05:30:40.379Z,26.30
2022-11-01T05:31:10.406Z,26.30
2022-11-01T05:31:40.435Z,26.32
2022-11-01T05:32:10.456Z,26.33
2022-11-01T05:32:40.482Z,26.32
2022-11-01T05:33:10.509Z,26.32
2022-11-01T05:33:40.538Z,26.32
2022-11-01T05:34:10.586Z,26.33
2022-11-01T05:34:40.589Z,26.33
2022-11-01T05:35:10.619Z,26.33
2022-11-01T05:35:40.639Z,26.32
2022-11-01T05:36:10.666Z,26.32
2022-11-01T05:36:40.686Z,26.33
2022-11-01T05:37:10.714Z,26.32
2022-11-01T05:37:40.741Z,26.29
2022-11-01T05:38:10.809Z,26.32
2022-11-01T05:38:40.844Z,26.32
2022-11-01T05:39:10.866Z,26.30
2022-11-01T05:39:40.891Z,26.32
2022-11-01T05:40:10.914Z,26.30
2022-11-01T05:40:40.937Z,26.30
2022-11-01T05:41:10.961Z,26.30
2022-11-01T05:41:40.983Z,26.30
2022-11-01T05:42:11.009Z,26.30
2022-11-01T05:42:41.034Z,26.30
2022-11-01T05:43:11.058Z,26.32
2022-11-01T05:43:41.094Z,26.30
2022-11-01T05:44:11.119Z,26.29
2022-11-01T05:44:41.154Z,26.30
2022-11-01T05:45:11.193Z,26.30
2022-11-01T05:45:41.216Z,26.29
2022-11-01T05:46:11.240Z,26.30
2022-11-01T05:46:41.264Z,26.29
2022-11-01T05:47:16.075Z,26.30
2022-11-01T05:47:41.329Z,26.32
2022-11-01T05:48:11.360Z,26.27
2022-11-01T05:48:41.390Z,26.29
2022-11-01T05:49:11.416Z,26.29
2022-11-01T05:49:41.469Z,26.27
2022-11-01T05:50:11.466Z,26.30
2022-11-01T05:50:41.491Z,26.29
2022-11-01T05:51:11.516Z,26.26
2022-11-01T05:51:41.544Z,26.27
2022-11-01T05:52:11.572Z,26.26
2022-11-01T05:52:41.606Z,26.27
2022-11-01T05:53:11.634Z,26.26
2022-11-01T05:53:41.669Z,26.30
2022-11-01T05:54:11.694Z,26.29
2022-11-01T05:54:41.718Z,26.27
2022-11-01T05:55:11.745Z,26.29
2022-11-01T05:55:41.776Z,26.29
2022-11-01T05:56:11.798Z,26.29
2022-11-01T05:56:41.825Z,26.29
2022-11-01T05:57:11.855Z,26.27
2022-11-01T05:57:41.980Z,26.26
2022-11-01T05:58:11.874Z,26.26
2022-11-01T05:58:41.897Z,26.29
2022-11-01T05:59:11.928Z,26.26
2022-11-01T05:59:41.950Z,26.26
2022-11-01T06:00:11.980Z,26.27
2022-11-01T06:00:42.002Z,26.29
2022-11-01T06:01:12.094Z,26.27
2022-11-01T06:01:42.200Z,26.26
2022-11-01T06:02:12.183Z,26.26
2022-11-01T06:02:42.245Z,26.27
2022-11-01T06:03:12.188Z,26.29
2022-11-01T06:03:42.219Z,26.27
2022-11-01T06:04:12.240Z,26.26
2022-11-01T06:04:42.266Z,26.26
2022-11-01T06:05:12.327Z,26.27
2022-11-01T06:05:42.321Z,26.26
2022-11-01T06:06:12.348Z,26.26
2022-11-01T06:06:42.378Z,26.26
2022-11-01T06:07:12.409Z,26.26
2022-11-01T06:07:42.437Z,26.26
2022-11-01T06:08:12.460Z,26.27
2022-11-01T06:08:42.494Z,26.24
2022-11-01T06:09:12.519Z,26.26
2022-11-01T06:09:42.548Z,26.24
2022-11-01T06:10:12.570Z,26.24
2022-11-01T06:10:42.594Z,26.23
2022-11-01T06:11:12.634Z,26.23
2022-11-01T06:11:42.649Z,26.26
2022-11-01T06:12:12.678Z,26.24
2022-11-01T06:12:42.707Z,26.23
2022-11-01T06:13:12.729Z,26.26
2022-11-01T06:13:42.771Z,26.26
2022-11-01T06:14:12.806Z,26.27
2022-11-01T06:14:42.839Z,26.27
2022-11-01T06:15:12.860Z,26.26
2022-11-01T06:15:42.856Z,26.27
2022-11-01T06:16:12.975Z,26.24
2022-11-01T06:16:43.084Z,26.24
2022-11-01T06:17:13.203Z,26.26
2022-11-01T06:17:43.316Z,26.24
2022-11-01T06:18:13.434Z,26.27
2022-11-01T06:18:43.551Z,26.26
2022-11-01T06:19:13.660Z,26.23
2022-11-01T06:19:43.774Z,26.24
2022-11-01T06:20:13.895Z,26.24
2022-11-01T06:20:44.029Z,26.24
2022-11-01T06:21:14.123Z,26.24
2022-11-01T06:21:44.241Z,26.24
2022-11-01T06:22:14.349Z,26.24
2022-11-01T06:22:44.461Z,26.26
2022-11-01T06:23:14.580Z,26.23
2022-11-01T06:23:44.689Z,26.24
2022-11-01T06:24:14.803Z,26.24
2022-11-01T06:24:44.921Z,26.26
2022-11-01T06:25:15.035Z,26.24
2022-11-01T06:25:45.051Z,26.24
2022-11-01T06:26:15.065Z,26.26
2022-11-01T06:26:45.095Z,26.24
2022-11-01T06:27:15.119Z,26.26
2022-11-01T06:27:45.139Z,26.23
2022-11-01T06:28:15.174Z,26.24
2022-11-01T06:28:45.202Z,26.24